Time;durP1;ratioP1;P1;durP2;ratioP2;P2;SDS_P1;SDS_P2;PMS_P1;PMS_P2;Temp;Humidity;BMP_temperature;BMP_pressure;BME280_temperature;BME280_humidity;BME280_pressure;Samples;Min_cycle;Max_cycle;Signal;HPM_P1;HPM_P2
2023/02/01 01:21:28;;;;;;;2.13;0.57;;;2.90;99.90;;;;;;1023694;23;21773;-91
2023/02/01 01:24:43;;;;;;;1.60;0.63;;;2.90;99.90;;;;;;4845890;29;20030;-91
2023/02/01 01:26:51;;;;;;;2.87;0.70;;;2.90;99.90;;;;;;4839788;29;20097;-91
2023/02/01 01:32:59;;;;;;;1.30;0.60;;;2.90;99.90;;;;;;4839466;29;20034;-92
2023/02/01 01:39:04;;;;;;;1.88;0.50;;;2.90;99.90;;;;;;4843727;29;20038;-92
2023/02/01 01:42:12;;;;;;;1.90;0.50;;;3.30;99.90;;;;;;4839888;29;20026;-92
2023/02/01 01:48:51;;;;;;;1.60;0.50;;;2.90;99.90;;;;;;4843286;29;20030;-91
2023/02/01 01:52:08;;;;;;;2.80;0.53;;;2.90;99.90;;;;;;4841506;29;20567;-91
2023/02/01 01:58:18;;;;;;;;;;;;;;;;;;;;;
2023/02/01 02:00:50;;;;;;;2.37;0.57;;;3.20;99.90;;;;;;4836291;29;20094;-91
2023/02/01 02:03:39;;;;;;;1.67;0.70;;;2.90;99.90;;;;;;4845954;29;20090;-93
2023/02/01 02:06:13;;;;;;;1.53;0.50;;;2.90;99.90;;;;;;4844893;29;20221;-92
2023/02/01 02:09:08;;;;;;;1.90;0.50;;;3.20;99.90;;;;;;4845471;29;20044;-92
2023/02/01 02:11:45;;;;;;;1.67;0.40;;;3.10;99.90;;;;;;4846250;29;20073;-91
2023/02/01 02:14:27;;;;;;;0.80;0.40;;;3.00;99.90;;;;;;4845771;29;20034;-92
2023/02/01 02:20:32;;;;;;;2.33;0.47;;;3.00;99.90;;;;;;4845533;29;20053;-92
2023/02/01 02:23:07;;;;;;;1.53;0.30;;;3.00;99.90;;;;;;4845033;29;20038;-91
2023/02/01 03:39:27;;;;;;;1.63;0.60;;;3.00;99.90;;;;;;4843301;29;20061;-91
2023/02/01 03:42:52;;;;;;;1.93;0.70;;;3.20;99.90;;;;;;4833102;29;20058;-91
2023/02/01 03:45:49;;;;;;;2.27;0.73;;;2.70;99.90;;;;;;4828207;29;20144;-91
2023/02/01 03:48:52;;;;;;;1.83;0.63;;;3.10;99.90;;;;;;4839132;29;20057;-90
2023/02/01 03:51:24;;;;;;;;;;;3.10;99.90;;;;;;4843392;29;20050;-91
2023/02/01 03:53:58;;;;;;;1.25;0.40;;;3.10;99.90;;;;;;4844189;29;19972;-92
2023/02/01 04:30:05;;;;;;;4.10;1.27;;;3.10;99.90;;;;;;3081047;27;20050;-90
2023/02/01 04:32:43;;;;;;;2.80;0.63;;;3.10;99.90;;;;;;4833826;29;20030;-90
2023/02/01 04:36:01;;;;;;;1.23;0.60;;;2.90;99.90;;;;;;4846745;29;20042;-90
2023/02/01 04:41:52;;;;;;;2.87;0.80;;;3.10;99.90;;;;;;4829609;29;20512;-90
2023/02/01 04:44:20;;;;;;;2.30;0.90;;;3.10;99.90;;;;;;4817266;29;20034;-90
2023/02/01 04:51:03;;;;;;;2.03;0.63;;;3.10;99.90;;;;;;4817552;29;20040;-90
2023/02/01 04:53:38;;;;;;;1.57;0.60;;;3.10;99.90;;;;;;4784606;29;20031;-90
2023/02/01 04:56:30;;;;;;;2.57;0.60;;;3.20;99.90;;;;;;4826455;29;20052;-90
2023/02/01 04:59:06;;;;;;;1.88;0.60;;;3.80;99.90;;;;;;4815037;29;20068;-89
2023/02/01 05:01:40;;;;;;;1.93;0.70;;;3.40;99.90;;;;;;4821319;29;20053;-89
2023/02/01 05:04:33;;;;;;;2.53;0.60;;;3.20;99.90;;;;;;4821936;29;20057;-90
2023/02/01 05:06:58;;;;;;;2.10;0.70;;;3.20;99.90;;;;;;4829654;29;20031;-89
2023/02/01 05:09:34;;;;;;;1.57;0.60;;;3.10;99.90;;;;;;4825070;29;20039;-89
2023/02/01 05:15:10;;;;;;;3.27;0.70;;;3.30;99.90;;;;;;4823754;29;20118;-89
2023/02/01 05:17:41;;;;;;;;;;;3.30;99.90;;;;;;4818551;29;20031;-89
2023/02/01 05:23:06;;;;;;;1.30;0.60;;;3.60;99.90;;;;;;4836279;29;20041;-88
2023/02/01 05:30:58;;;;;;;;;;;;;;;;;;;;;
2023/02/01 05:33:36;;;;;;;3.53;0.80;;;3.20;99.90;;;;;;4833222;29;20113;-89
2023/02/01 05:36:20;;;;;;;2.73;0.60;;;3.40;99.90;;;;;;4833771;29;20125;-89
2023/02/01 05:38:55;;;;;;;2.57;0.67;;;3.20;99.90;;;;;;4829599;29;20027;-89
2023/02/01 05:41:32;;;;;;;0.83;0.30;;;3.90;99.90;;;;;;4835366;29;20033;-89
2023/02/01 05:44:07;;;;;;;2.43;0.63;;;3.30;99.90;;;;;;4833634;29;20026;-90
2023/02/01 05:46:41;;;;;;;1.17;0.50;;;3.30;99.90;;;;;;4838473;29;20037;-89
2023/02/01 05:49:12;;;;;;;2.00;0.50;;;3.30;99.90;;;;;;4835885;29;20029;-89
2023/02/01 05:51:46;;;;;;;1.77;0.53;;;4.00;99.90;;;;;;4833933;29;20021;-89
2023/02/01 05:54:12;;;;;;;0.93;0.43;;;3.70;99.90;;;;;;4830512;29;20031;-88
2023/02/01 05:56:48;;;;;;;1.97;0.60;;;4.00;99.90;;;;;;4832056;29;20538;-89
2023/02/01 05:59:22;;;;;;;1.57;0.50;;;4.00;99.90;;;;;;4828013;29;20110;-88
2023/02/01 06:02:42;;;;;;;1.43;0.50;;;3.30;99.90;;;;;;4825948;29;20102;-90
2023/02/01 06:09:28;;;;;;;5.17;0.90;;;3.30;99.90;;;;;;4825194;29;20504;-91
2023/02/01 06:12:26;;;;;;;0.53;0.23;;;3.90;99.90;;;;;;4827491;29;20026;-89
2023/02/01 06:17:49;;;;;;;1.60;0.40;;;3.20;99.90;;;;;;4875338;23;20046;-89
2023/02/01 06:20:37;;;;;;;1.15;0.45;;;4.10;99.90;;;;;;4847401;29;20054;-89
2023/02/01 06:26:51;;;;;;;1.00;0.40;;;3.20;99.90;;;;;;4848836;29;20038;-89
2023/02/01 06:29:54;;;;;;;1.40;0.40;;;3.10;99.90;;;;;;4853007;29;20043;-89
2023/02/01 06:32:23;;;;;;;1.20;0.37;;;4.00;99.90;;;;;;4853212;29;20042;-89
2023/02/01 06:40:53;;;;;;;;;;;;;;;;;;;;;
2023/02/01 06:43:37;;;;;;;1.40;0.40;;;3.00;99.90;;;;;;4851320;29;20074;-90
2023/02/01 06:46:52;;;;;;;2.03;0.63;;;4.00;99.90;;;;;;4851596;29;20578;-90
2023/02/01 06:49:57;;;;;;;1.60;0.40;;;3.40;99.90;;;;;;4854468;29;20075;-89
2023/02/01 06:52:54;;;;;;;2.20;0.50;;;3.10;99.90;;;;;;4863239;29;20506;-89
2023/02/01 06:55:25;;;;;;;1.90;0.73;;;3.10;99.90;;;;;;4867407;29;20318;-89
2023/02/01 06:58:05;;;;;;;3.10;0.70;;;3.60;99.90;;;;;;4864388;29;20070;-89
2023/02/01 07:00:41;;;;;;;;;;;;;;;;;;;;;
2023/02/01 07:06:54;;;;;;;1.63;0.50;;;3.20;99.90;;;;;;4851195;29;20037;-91
2023/02/01 07:09:54;;;;;;;1.53;0.50;;;2.60;99.90;;;;;;4854892;29;20106;-90
2023/02/01 07:12:52;;;;;;;2.80;0.50;;;3.20;99.90;;;;;;4853219;29;20058;-90
2023/02/01 07:15:51;;;;;;;1.80;0.53;;;4.60;99.90;;;;;;4820220;29;20050;-89
2023/02/01 07:39:12;;;;;;;2.60;0.60;;;3.60;99.90;;;;;;4853485;29;20060;-92
2023/02/01 07:48:57;;;;;;;2.35;0.60;;;4.50;99.90;;;;;;4833530;29;20076;-91
2023/02/01 07:51:42;;;;;;;1.40;0.43;;;4.20;99.90;;;;;;4810319;29;20077;-90
2023/02/01 07:57:49;;;;;;;1.17;0.43;;;3.90;99.90;;;;;;4863037;29;20050;-89
2023/02/01 08:03:13;;;;;;;1.73;0.47;;;3.80;99.90;;;;;;4857946;29;20059;-90
2023/02/01 08:05:45;;;;;;;1.30;0.50;;;3.70;99.90;;;;;;4863244;29;20030;-89
2023/02/01 08:08:26;;;;;;;4.18;0.68;;;4.10;99.90;;;;;;4861809;29;20030;-91
2023/02/01 08:11:00;;;;;;;1.43;0.40;;;3.70;99.90;;;;;;4864326;29;20018;-90
2023/02/01 08:13:44;;;;;;;1.67;0.50;;;3.70;99.90;;;;;;4859905;29;20030;-89
2023/02/01 08:16:12;;;;;;;1.50;0.40;;;4.30;99.90;;;;;;4847508;29;20094;-88
2023/02/01 08:18:42;;;;;;;1.53;0.53;;;3.50;99.90;;;;;;4861171;29;20022;-88
2023/02/01 08:21:11;;;;;;;1.63;0.63;;;4.00;99.90;;;;;;4850468;29;20023;-89
2023/02/01 08:23:38;;;;;;;3.57;0.63;;;3.80;99.90;;;;;;4844250;29;20027;-89
2023/02/01 08:26:13;;;;;;;1.30;0.37;;;3.80;99.90;;;;;;4841790;29;20050;-89
2023/02/01 08:28:43;;;;;;;1.67;0.57;;;3.80;99.90;;;;;;4850621;29;20093;-88
2023/02/01 08:31:11;;;;;;;1.93;0.80;;;3.80;99.90;;;;;;4853906;29;20040;-88
2023/02/01 08:33:37;;;;;;;1.13;0.40;;;3.80;99.90;;;;;;4846896;29;20186;-88
2023/02/01 08:36:08;;;;;;;1.30;0.60;;;3.90;99.90;;;;;;4843147;29;20054;-88
2023/02/01 08:38:36;;;;;;;3.33;0.80;;;3.90;99.90;;;;;;4842861;29;20030;-88
2023/02/01 08:41:25;;;;;;;4.00;0.90;;;3.80;99.90;;;;;;4844013;29;20038;-88
2023/02/01 08:43:53;;;;;;;2.43;1.03;;;4.50;99.90;;;;;;4840588;29;20026;-88
2023/02/01 08:46:20;;;;;;;2.20;0.77;;;3.90;99.90;;;;;;4843950;29;20048;-88
2023/02/01 08:48:47;;;;;;;1.67;0.63;;;4.00;99.90;;;;;;4841876;29;20026;-88
2023/02/01 08:51:18;;;;;;;2.07;0.50;;;4.60;99.90;;;;;;4842878;29;20041;-88
2023/02/01 08:53:47;;;;;;;4.17;0.30;;;5.00;99.90;;;;;;4842376;29;20044;-88
2023/02/01 08:56:15;;;;;;;1.30;0.50;;;4.50;99.90;;;;;;4841264;29;20488;-87
2023/02/01 08:58:41;;;;;;;1.77;0.50;;;6.20;99.90;;;;;;4840818;29;20624;-88
2023/02/01 09:01:12;;;;;;;3.90;0.73;;;3.40;99.90;;;;;;4844779;29;20038;-87
2023/02/01 09:03:41;;;;;;;1.13;0.30;;;3.50;99.90;;;;;;4843387;29;20032;-88
2023/02/01 09:06:12;;;;;;;4.77;0.50;;;4.30;99.90;;;;;;4848813;29;20026;-88
2023/02/01 09:08:39;;;;;;;0.98;0.47;;;4.10;99.90;;;;;;4844018;29;20037;-88
2023/02/01 09:11:08;;;;;;;1.27;0.53;;;4.00;99.90;;;;;;4844332;29;20060;-87
2023/02/01 09:13:35;;;;;;;2.23;0.47;;;4.10;99.90;;;;;;4848940;29;20026;-88
2023/02/01 09:16:01;;;;;;;2.70;0.67;;;4.00;99.90;;;;;;4847064;29;20025;-88
2023/02/01 09:18:29;;;;;;;1.47;0.50;;;3.90;99.90;;;;;;4847150;29;20036;-86
2023/02/01 09:20:54;;;;;;;1.00;0.40;;;3.70;99.90;;;;;;4846432;29;20018;-87
2023/02/01 09:23:20;;;;;;;2.77;0.60;;;4.10;99.90;;;;;;4842011;29;20559;-88
2023/02/01 09:25:49;;;;;;;3.90;0.60;;;4.40;99.90;;;;;;4845388;29;20034;-88
2023/02/01 09:28:21;;;;;;;2.47;0.57;;;4.20;99.90;;;;;;4844027;29;20037;-88
2023/02/01 09:31:05;;;;;;;2.33;0.52;;;4.30;99.90;;;;;;4843048;29;20033;-89
2023/02/01 09:33:34;;;;;;;1.60;0.50;;;3.90;99.90;;;;;;4851855;29;20094;-88
2023/02/01 09:36:04;;;;;;;6.10;1.00;;;3.40;99.90;;;;;;4846854;29;20041;-88
2023/02/01 09:38:32;;;;;;;1.07;0.60;;;5.00;99.90;;;;;;4837870;29;20030;-88
2023/02/01 09:40:59;;;;;;;1.83;0.57;;;4.20;99.90;;;;;;4839758;29;20030;-87
2023/02/01 09:43:31;;;;;;;2.43;0.83;;;5.90;99.90;;;;;;4844805;29;20026;-87
2023/02/01 09:46:00;;;;;;;;;;;4.20;99.90;;;;;;4843964;29;20042;-88
2023/02/01 09:48:32;;;;;;;0.67;0.40;;;4.30;99.90;;;;;;4846220;29;19916;-87
2023/02/01 09:51:14;;;;;;;4.97;0.93;;;6.10;99.90;;;;;;4857019;29;20049;-88
2023/02/01 09:53:42;;;;;;;;;;;4.50;99.90;;;;;;4846709;29;20049;-88
2023/02/01 09:56:27;;;;;;;1.30;0.40;;;;;;;;;;4846869;29;19916;-88
2023/02/01 09:59:06;;;;;;;0.83;0.47;;;4.60;99.90;;;;;;4841121;29;20037;-89
2023/02/01 10:01:32;;;;;;;1.03;0.50;;;7.20;99.90;;;;;;4841668;29;20129;-87
2023/02/01 10:04:12;;;;;;;3.53;0.40;;;5.00;99.90;;;;;;4845642;29;20046;-88
2023/02/01 10:07:02;;;;;;;4.10;0.67;;;4.80;99.90;;;;;;4846520;29;20029;-88
2023/02/01 10:09:53;;;;;;;1.97;0.70;;;4.20;99.90;;;;;;4845668;29;20061;-88
2023/02/01 10:12:40;;;;;;;0.83;0.33;;;4.80;99.90;;;;;;4857991;29;20045;-88
2023/02/01 10:15:21;;;;;;;2.23;0.47;;;4.80;99.90;;;;;;4846986;29;20034;-88
2023/02/01 10:18:11;;;;;;;3.07;0.60;;;4.90;99.90;;;;;;4844801;29;20059;-88
2023/02/01 10:20:46;;;;;;;1.60;0.50;;;4.70;99.90;;;;;;4845473;29;20022;-87
2023/02/01 10:23:41;;;;;;;3.17;0.57;;;4.60;99.90;;;;;;4843492;29;20098;-87
2023/02/01 10:26:20;;;;;;;4.20;0.50;;;4.60;99.90;;;;;;4839111;29;20072;-87
2023/02/01 10:28:50;;;;;;;3.33;0.60;;;4.70;99.90;;;;;;4848962;29;20036;-88
2023/02/01 10:31:22;;;;;;;1.80;0.40;;;4.60;99.90;;;;;;4846736;29;20036;-88
2023/02/01 10:33:56;;;;;;;3.60;0.77;;;4.60;99.90;;;;;;4851322;29;20095;-88
2023/02/01 10:36:41;;;;;;;2.83;0.60;;;4.80;99.90;;;;;;4844566;29;20049;-88
2023/02/01 10:39:15;;;;;;;4.70;0.60;;;4.70;99.90;;;;;;4849193;29;20062;-88
2023/02/01 10:42:00;;;;;;;2.47;0.60;;;6.50;99.90;;;;;;4850857;29;20038;-88
2023/02/01 10:44:55;;;;;;;3.43;0.57;;;5.00;99.90;;;;;;4850705;29;20045;-88
2023/02/01 10:47:21;;;;;;;1.90;0.50;;;5.40;99.90;;;;;;4866964;29;20030;-87
2023/02/01 10:49:56;;;;;;;3.03;0.67;;;5.20;99.90;;;;;;4849462;29;20087;-88
2023/02/01 10:52:41;;;;;;;3.53;0.50;;;5.90;99.90;;;;;;4844056;29;20068;-88
2023/02/01 10:55:25;;;;;;;4.17;0.80;;;6.30;99.90;;;;;;4848230;29;20108;-89
2023/02/01 10:58:04;;;;;;;2.67;0.73;;;5.10;99.90;;;;;;4846420;29;20491;-88
2023/02/01 11:00:44;;;;;;;2.03;0.30;;;5.10;99.90;;;;;;4848824;29;20038;-88
2023/02/01 11:03:51;;;;;;;2.63;0.33;;;4.50;99.90;;;;;;4849604;29;20063;-88
2023/02/01 11:06:36;;;;;;;6.70;0.60;;;5.20;99.90;;;;;;4839451;29;20037;-88
2023/02/01 11:09:16;;;;;;;1.50;0.60;;;5.20;99.90;;;;;;4855623;29;20045;-88
2023/02/01 11:11:49;;;;;;;7.67;0.53;;;5.30;99.90;;;;;;4863883;29;20042;-88
2023/02/01 11:14:24;;;;;;;2.13;0.40;;;6.60;99.90;;;;;;4862327;29;20042;-88
2023/02/01 11:16:57;;;;;;;1.70;0.43;;;5.30;99.90;;;;;;4867374;29;20034;-88
2023/02/01 11:19:23;;;;;;;1.63;0.63;;;4.50;99.90;;;;;;4847462;29;20075;-88
2023/02/01 11:21:52;;;;;;;3.73;0.90;;;6.60;99.90;;;;;;4847372;29;20030;-88
2023/02/01 11:24:53;;;;;;;3.57;0.57;;;5.40;99.90;;;;;;4842424;29;20061;-88
2023/02/01 11:27:28;;;;;;;1.47;0.50;;;6.50;99.90;;;;;;4846917;29;20048;-88
2023/02/01 11:30:00;;;;;;;3.13;0.50;;;5.40;99.90;;;;;;4848259;29;20129;-87
2023/02/01 11:32:27;;;;;;;1.53;0.53;;;6.60;99.90;;;;;;4849720;29;20048;-88
2023/02/01 11:35:04;;;;;;;3.67;0.40;;;5.40;99.90;;;;;;4848231;29;20073;-88
2023/02/01 11:37:50;;;;;;;1.73;0.73;;;7.10;99.90;;;;;;4847887;29;20038;-88
2023/02/01 11:40:16;;;;;;;3.37;0.40;;;5.40;99.90;;;;;;4849449;29;20044;-88
2023/02/01 11:42:57;;;;;;;3.63;0.80;;;5.10;99.90;;;;;;4849640;29;20045;-88
2023/02/01 11:45:27;;;;;;;2.33;0.70;;;5.40;99.90;;;;;;4856955;29;20495;-88
2023/02/01 11:47:55;;;;;;;2.73;0.37;;;6.40;99.90;;;;;;4848041;29;20106;-87
2023/02/01 11:51:01;;;;;;;3.67;0.60;;;7.30;99.90;;;;;;4849042;29;20033;-88
2023/02/01 11:54:16;;;;;;;3.60;0.50;;;5.60;99.90;;;;;;4865777;29;20029;-88
2023/02/01 11:56:48;;;;;;;2.43;0.50;;;4.50;99.90;;;;;;4841917;29;20022;-89
2023/02/01 11:59:40;;;;;;;4.53;0.40;;;5.70;99.90;;;;;;4845556;29;20583;-88
2023/02/01 12:02:25;;;;;;;;;;;6.30;99.90;;;;;;4846871;29;20034;-88
2023/02/01 12:05:41;;;;;;;1.43;0.33;;;6.10;99.90;;;;;;4852336;29;19912;-89
2023/02/01 12:08:41;;;;;;;3.40;0.40;;;5.70;99.90;;;;;;4841693;29;20094;-88
2023/02/01 12:11:32;;;;;;;0.87;0.20;;;5.20;99.90;;;;;;4826337;29;20045;-88
2023/02/01 12:14:22;;;;;;;4.33;0.40;;;5.30;99.90;;;;;;4849394;29;20038;-88
2023/02/01 12:17:38;;;;;;;3.43;0.40;;;5.80;99.90;;;;;;4844747;29;20034;-89
2023/02/01 12:20:50;;;;;;;3.40;0.40;;;5.60;99.90;;;;;;4861390;29;20072;-88
2023/02/01 12:23:52;;;;;;;0.95;0.35;;;5.80;99.90;;;;;;4843091;29;20122;-88
2023/02/01 12:26:24;;;;;;;2.38;0.32;;;4.40;99.90;;;;;;4847559;29;20446;-88
2023/02/01 12:29:27;;;;;;;3.95;0.47;;;5.50;99.90;;;;;;4847609;29;20055;-87
2023/02/01 12:32:20;;;;;;;3.87;0.60;;;5.50;99.90;;;;;;4847232;29;20104;-88
2023/02/01 12:35:24;;;;;;;4.90;1.30;;;5.80;99.90;;;;;;4848194;29;20067;-88
2023/02/01 12:38:08;;;;;;;2.80;0.57;;;4.80;99.90;;;;;;4848204;29;20033;-87
2023/02/01 12:40:52;;;;;;;1.00;0.37;;;5.20;99.90;;;;;;4843591;29;20029;-88
2023/02/01 12:43:33;;;;;;;1.70;0.50;;;5.40;99.90;;;;;;4841573;29;20178;-88
2023/02/01 12:46:12;;;;;;;1.53;0.33;;;5.40;99.90;;;;;;4842107;29;20030;-88
2023/02/01 12:48:50;;;;;;;3.17;0.40;;;5.10;99.90;;;;;;4841637;29;20546;-89
2023/02/01 12:51:26;;;;;;;4.47;1.20;;;5.30;99.90;;;;;;4841824;29;20045;-88
2023/02/01 12:53:57;;;;;;;3.10;0.53;;;4.40;99.90;;;;;;4848644;29;20028;-87
2023/02/01 12:56:44;;;;;;;2.53;0.60;;;6.60;99.90;;;;;;4847272;29;20033;-89
2023/02/01 12:59:36;;;;;;;4.63;0.70;;;6.30;99.90;;;;;;4848312;29;20041;-88
2023/02/01 13:02:18;;;;;;;4.10;0.43;;;5.10;99.90;;;;;;4853966;29;20034;-87
2023/02/01 13:05:15;;;;;;;3.20;0.57;;;5.30;99.90;;;;;;4852623;29;20086;-88
2023/02/01 13:08:07;;;;;;;3.83;0.20;;;5.90;99.90;;;;;;4852130;29;20480;-88
2023/02/01 13:11:06;;;;;;;1.58;0.35;;;5.80;99.90;;;;;;4852652;29;20484;-89
2023/02/01 13:14:09;;;;;;;1.13;0.30;;;6.00;99.90;;;;;;4852016;29;20053;-89
2023/02/01 13:16:45;;;;;;;4.67;0.33;;;5.20;99.90;;;;;;4850316;29;20070;-88
2023/02/01 13:19:26;;;;;;;1.23;0.50;;;5.20;99.90;;;;;;4850667;29;20114;-88
2023/02/01 13:22:11;;;;;;;1.58;0.38;;;6.10;99.90;;;;;;4851094;29;20041;-89
2023/02/01 13:24:52;;;;;;;1.80;0.57;;;5.20;99.90;;;;;;4853938;29;20034;-89
2023/02/01 13:27:26;;;;;;;0.87;0.30;;;5.50;99.90;;;;;;4854793;29;20069;-89
2023/02/01 13:30:05;;;;;;;3.73;0.40;;;5.60;99.90;;;;;;4850245;29;20032;-88
2023/02/01 13:33:09;;;;;;;4.10;0.40;;;5.70;99.90;;;;;;4857685;29;20029;-88
2023/02/01 13:35:52;;;;;;;1.40;0.20;;;5.20;99.90;;;;;;4865941;29;20040;-89
2023/02/01 13:38:38;;;;;;;2.37;0.50;;;4.30;99.90;;;;;;4854345;29;20022;-88
2023/02/01 13:41:13;;;;;;;2.33;0.40;;;6.80;99.90;;;;;;4853122;29;20380;-89
2023/02/01 13:43:44;;;;;;;5.93;0.93;;;5.10;99.90;;;;;;4849983;29;20057;-89
2023/02/01 13:46:32;;;;;;;3.73;0.50;;;5.30;99.90;;;;;;4849758;29;20030;-89
2023/02/01 13:49:02;;;;;;;3.97;0.60;;;5.50;99.90;;;;;;4851894;29;20132;-88
2023/02/01 13:51:46;;;;;;;3.93;0.60;;;6.80;99.90;;;;;;4851707;29;20026;-90
2023/02/01 13:54:34;;;;;;;2.63;0.40;;;6.20;99.90;;;;;;4847807;29;20021;-89
2023/02/01 13:57:06;;;;;;;4.90;0.57;;;5.10;99.90;;;;;;4852164;29;20049;-90
2023/02/01 13:59:41;;;;;;;8.00;0.55;;;5.70;99.90;;;;;;4852171;29;20515;-89
2023/02/01 14:02:38;;;;;;;2.60;0.33;;;6.20;99.90;;;;;;4849273;29;20038;-88
2023/02/01 14:05:12;;;;;;;3.07;0.50;;;5.00;99.90;;;;;;4851193;29;20034;-86
2023/02/01 14:08:10;;;;;;;3.20;0.70;;;5.40;99.90;;;;;;4848086;29;20546;-87
2023/02/01 14:10:53;;;;;;;4.70;0.40;;;5.00;99.90;;;;;;4844112;29;20115;-87
2023/02/01 14:13:33;;;;;;;0.97;0.30;;;4.10;99.90;;;;;;4850023;29;20076;-88
2023/02/01 14:16:04;;;;;;;1.63;0.40;;;5.70;99.90;;;;;;4842666;29;20023;-87
2023/02/01 14:18:58;;;;;;;3.22;0.40;;;5.00;99.90;;;;;;4857366;29;20041;-87
2023/02/01 14:21:56;;;;;;;1.17;0.50;;;5.30;99.90;;;;;;4841342;29;20329;-89
2023/02/01 14:24:30;;;;;;;1.13;0.30;;;4.90;99.90;;;;;;4851953;29;20030;-88
2023/02/01 14:27:16;;;;;;;3.47;0.47;;;6.20;99.90;;;;;;4870499;29;20029;-88
2023/02/01 14:29:57;;;;;;;3.77;0.53;;;5.20;99.90;;;;;;4848141;29;20029;-89
2023/02/01 14:32:33;;;;;;;1.97;0.40;;;5.00;99.90;;;;;;4851051;29;20042;-89
2023/02/01 14:35:02;;;;;;;3.40;0.30;;;4.80;99.90;;;;;;4851210;29;20038;-89
2023/02/01 14:37:39;;;;;;;7.83;1.13;;;5.00;99.90;;;;;;4851699;29;20066;-87
2023/02/01 14:40:25;;;;;;;1.17;0.30;;;5.00;99.90;;;;;;4847631;29;20021;-87
2023/02/01 14:42:56;;;;;;;5.73;1.00;;;5.30;99.90;;;;;;4846808;29;20031;-89
2023/02/01 14:45:27;;;;;;;6.03;0.50;;;5.00;99.90;;;;;;4845196;29;20032;-88
2023/02/01 14:48:08;;;;;;;1.90;0.30;;;5.20;99.90;;;;;;4851098;29;20030;-88
2023/02/01 14:50:40;;;;;;;2.53;0.97;;;5.30;99.90;;;;;;4849951;29;20030;-89
2023/02/01 14:53:12;;;;;;;2.80;0.40;;;5.00;99.90;;;;;;4853237;29;20058;-88
2023/02/01 14:55:58;;;;;;;3.67;0.65;;;5.00;99.90;;;;;;4846028;29;20066;-87
2023/02/01 14:58:51;;;;;;;2.87;0.50;;;5.10;99.90;;;;;;4857045;29;20440;-87
2023/02/01 15:01:26;;;;;;;0.93;0.30;;;5.10;99.90;;;;;;4848356;29;20030;-89
2023/02/01 15:04:21;;;;;;;3.00;0.30;;;4.80;99.90;;;;;;4848609;29;20122;-89
2023/02/01 15:06:48;;;;;;;3.67;0.93;;;5.10;99.90;;;;;;4851208;29;20041;-87
2023/02/01 15:09:24;;;;;;;4.83;1.40;;;6.50;99.90;;;;;;4857755;29;20038;-87
2023/02/01 15:12:09;;;;;;;2.77;0.40;;;6.30;99.90;;;;;;4851165;29;20044;-87
2023/02/01 15:14:36;;;;;;;2.83;0.60;;;4.80;99.90;;;;;;4863459;29;20035;-88
2023/02/01 15:17:33;;;;;;;0.77;0.33;;;6.00;99.90;;;;;;4851872;29;20030;-88
2023/02/01 15:20:44;;;;;;;1.60;0.40;;;4.50;99.90;;;;;;4854117;29;20033;-87
2023/02/01 15:23:22;;;;;;;2.43;0.43;;;5.90;99.90;;;;;;4843494;29;20076;-90
2023/02/01 15:26:08;;;;;;;2.40;0.40;;;4.80;99.90;;;;;;4853629;29;20021;-88
2023/02/01 15:28:35;;;;;;;1.17;0.30;;;4.70;99.90;;;;;;4851178;29;20322;-88
2023/02/01 15:31:08;;;;;;;2.00;0.47;;;5.80;99.90;;;;;;4852151;29;20044;-90
2023/02/01 15:33:40;;;;;;;3.30;0.53;;;5.80;99.90;;;;;;4851584;29;20021;-86
2023/02/01 15:36:22;;;;;;;3.75;0.90;;;5.90;99.90;;;;;;4867086;29;20090;-88
2023/02/01 15:39:19;;;;;;;4.15;0.40;;;5.10;99.90;;;;;;4856372;29;20040;-88
2023/02/01 15:42:15;;;;;;;3.50;0.50;;;5.10;99.90;;;;;;4849250;29;20042;-89
2023/02/01 15:44:45;;;;;;;4.87;0.40;;;5.50;99.90;;;;;;4848438;29;20034;-88
2023/02/01 15:47:46;;;;;;;3.80;0.63;;;4.50;99.90;;;;;;4855112;29;20101;-89
2023/02/01 15:50:20;;;;;;;3.27;0.73;;;6.50;99.90;;;;;;4839777;29;20129;-88
2023/02/01 15:53:07;;;;;;;5.80;0.60;;;5.60;99.90;;;;;;4853840;29;20049;-88
2023/02/01 15:55:45;;;;;;;4.63;0.50;;;5.80;99.90;;;;;;4859186;29;20038;-88
2023/02/01 15:58:31;;;;;;;5.33;0.90;;;5.00;99.90;;;;;;4861384;29;20092;-88
2023/02/01 16:01:08;;;;;;;4.80;0.50;;;5.20;99.90;;;;;;4859350;29;20057;-88
2023/02/01 16:07:06;;;;;;;2.03;0.47;;;5.10;99.90;;;;;;4872844;23;20101;-88
2023/02/01 16:09:54;;;;;;;2.07;0.40;;;5.60;99.90;;;;;;4855883;29;20010;-88
2023/02/01 16:12:44;;;;;;;1.63;0.60;;;4.20;99.90;;;;;;4857015;29;20030;-87
2023/02/01 16:15:20;;;;;;;1.10;0.30;;;5.00;99.90;;;;;;4855709;29;20042;-88
2023/02/01 16:17:46;;;;;;;3.10;0.70;;;6.30;99.90;;;;;;4831238;29;20026;-87
2023/02/01 16:20:15;;;;;;;3.07;0.37;;;5.10;99.90;;;;;;4829214;29;20030;-89
2023/02/01 16:23:54;;;;;;;5.67;0.50;;;4.90;99.90;;;;;;4832674;29;20027;-89
2023/02/01 16:25:55;;;;;;;1.10;0.40;;;5.20;99.90;;;;;;4829976;29;20061;-88
2023/02/01 16:28:36;;;;;;;2.87;0.40;;;5.70;99.90;;;;;;4834913;29;20038;-90
2023/02/01 16:31:04;;;;;;;3.53;0.70;;;5.00;99.90;;;;;;4830517;29;20034;-88
2023/02/01 16:33:52;;;;;;;2.80;0.47;;;4.60;99.90;;;;;;4832156;29;20576;-89
2023/02/01 16:36:41;;;;;;;1.20;0.20;;;5.40;99.90;;;;;;4827720;29;20038;-90
2023/02/01 16:39:18;;;;;;;4.40;0.80;;;5.20;99.90;;;;;;4830188;29;20062;-89
2023/02/01 16:41:45;;;;;;;1.37;0.50;;;4.90;99.90;;;;;;4832488;29;20026;-87
2023/02/01 16:44:24;;;;;;;2.10;0.60;;;4.90;99.90;;;;;;4832334;29;20046;-88
2023/02/01 16:46:50;;;;;;;3.20;0.73;;;4.60;99.90;;;;;;4831941;29;20102;-90
2023/02/01 16:49:31;;;;;;;2.07;0.60;;;4.90;99.90;;;;;;4828876;29;20051;-89
2023/02/01 16:51:58;;;;;;;4.20;1.07;;;4.70;99.90;;;;;;4830286;29;20035;-90
2023/02/01 16:54:30;;;;;;;1.67;0.40;;;5.30;99.90;;;;;;4831206;29;20063;-88
2023/02/01 16:56:59;;;;;;;3.40;0.47;;;4.40;99.90;;;;;;4823133;29;20064;-90
2023/02/01 16:59:27;;;;;;;5.63;0.50;;;4.70;99.90;;;;;;4828133;29;20095;-88
2023/02/01 17:01:53;;;;;;;2.63;0.30;;;5.10;99.90;;;;;;4826751;29;20040;-87
2023/02/01 17:04:22;;;;;;;3.23;0.70;;;5.50;99.90;;;;;;4826583;29;20103;-89
2023/02/01 17:06:48;;;;;;;3.00;0.47;;;4.80;99.90;;;;;;4819965;29;20401;-88
2023/02/01 17:09:18;;;;;;;2.17;0.60;;;4.70;99.90;;;;;;4834824;29;20034;-88
2023/02/01 17:11:46;;;;;;;2.47;0.33;;;4.80;99.90;;;;;;4828104;29;20042;-88
2023/02/01 17:14:18;;;;;;;2.30;0.40;;;4.20;99.90;;;;;;4824897;29;20480;-88
2023/02/01 17:16:50;;;;;;;3.30;0.52;;;4.80;99.90;;;;;;4820580;29;20499;-89
2023/02/01 17:19:22;;;;;;;3.07;0.63;;;4.80;99.90;;;;;;4824860;29;20031;-88
2023/02/01 17:21:51;;;;;;;2.78;0.60;;;5.00;99.90;;;;;;4825865;29;20034;-88
2023/02/01 17:24:19;;;;;;;1.97;0.50;;;5.50;99.90;;;;;;4828138;29;20098;-89
2023/02/01 17:26:45;;;;;;;3.83;0.60;;;4.90;99.90;;;;;;4826306;29;20097;-88
2023/02/01 17:29:12;;;;;;;5.50;0.80;;;4.40;99.90;;;;;;4825993;29;20114;-88
2023/02/01 17:31:44;;;;;;;1.97;0.83;;;4.80;99.90;;;;;;4819071;29;20026;-87
2023/02/01 17:34:14;;;;;;;2.30;0.50;;;4.80;99.90;;;;;;4841541;29;20042;-89
2023/02/01 17:36:44;;;;;;;4.40;0.50;;;4.80;99.90;;;;;;4827349;29;20029;-89
2023/02/01 17:39:10;;;;;;;3.53;0.50;;;5.60;99.90;;;;;;4826518;29;20058;-88
2023/02/01 17:41:36;;;;;;;5.17;0.60;;;4.80;99.90;;;;;;4824821;29;20037;-88
2023/02/01 17:44:03;;;;;;;3.40;0.60;;;5.80;99.90;;;;;;4830223;29;20023;-90
2023/02/01 17:46:30;;;;;;;3.43;0.43;;;4.80;99.90;;;;;;4829822;29;20038;-89
2023/02/01 17:48:56;;;;;;;3.57;0.53;;;5.40;99.90;;;;;;4824708;29;20091;-89
2023/02/01 17:51:26;;;;;;;2.80;0.80;;;4.70;99.90;;;;;;4820666;29;20046;-89
2023/02/01 17:53:52;;;;;;;3.07;0.50;;;4.80;99.90;;;;;;4825534;29;20058;-88
2023/02/01 17:56:21;;;;;;;2.50;0.60;;;4.80;99.90;;;;;;4825983;29;20397;-88
2023/02/01 17:58:47;;;;;;;2.97;0.67;;;4.80;99.90;;;;;;4819510;29;20050;-88
2023/02/01 18:01:21;;;;;;;6.30;0.53;;;4.40;99.90;;;;;;4823063;29;20564;-88
2023/02/01 18:03:47;;;;;;;3.77;0.87;;;4.80;99.90;;;;;;4819772;29;20086;-87
2023/02/01 18:06:16;;;;;;;5.07;0.57;;;4.80;99.90;;;;;;4822383;29;20045;-88
2023/02/01 18:08:42;;;;;;;4.33;0.50;;;4.80;99.90;;;;;;4824640;29;20043;-88
2023/02/01 18:11:14;;;;;;;3.33;0.60;;;4.80;99.90;;;;;;4825357;29;20511;-89
2023/02/01 18:13:40;;;;;;;6.32;0.77;;;4.70;99.90;;;;;;4822610;29;20035;-89
2023/02/01 18:16:12;;;;;;;2.93;0.50;;;5.50;99.90;;;;;;4823945;29;20046;-89
2023/02/01 18:18:37;;;;;;;1.65;0.40;;;4.70;99.90;;;;;;4824083;29;20034;-88
2023/02/01 18:21:03;;;;;;;2.07;0.27;;;4.60;99.90;;;;;;4826853;29;20033;-88
2023/02/01 18:23:29;;;;;;;3.13;0.57;;;4.60;99.90;;;;;;4818294;29;20094;-88
2023/02/01 18:25:55;;;;;;;2.10;0.50;;;4.80;99.90;;;;;;4824883;29;20022;-89
2023/02/01 18:28:20;;;;;;;3.07;0.50;;;4.60;99.90;;;;;;4823101;29;20403;-89
2023/02/01 18:30:49;;;;;;;2.37;0.70;;;4.40;99.90;;;;;;4827232;29;20029;-89
2023/02/01 18:33:16;;;;;;;3.10;0.53;;;4.50;99.90;;;;;;4822625;29;20383;-88
2023/02/01 18:35:42;;;;;;;3.27;0.50;;;4.90;99.90;;;;;;4829606;29;20041;-88
2023/02/01 18:38:09;;;;;;;1.60;0.50;;;5.10;99.90;;;;;;4828208;29;20102;-89
2023/02/01 18:40:57;;;;;;;2.37;0.53;;;4.50;99.90;;;;;;4822081;29;20117;-87
2023/02/01 18:43:24;;;;;;;4.63;0.60;;;4.50;99.90;;;;;;4824488;29;20491;-89
2023/02/01 18:45:49;;;;;;;1.93;0.80;;;4.30;99.90;;;;;;4827683;29;20137;-88